createdAt,value
2022-08-09T00:00:16.764Z,26.67
2022-08-09T00:02:49.455Z,26.67
2022-08-09T00:06:17.603Z,26.66
2022-08-09T00:08:11.363Z,26.46
2022-08-09T00:10:40.196Z,26.45
2022-08-09T00:13:17.059Z,26.46
2022-08-09T00:15:59.508Z,26.29
2022-08-09T00:18:34.898Z,26.32
2022-08-09T00:21:04.321Z,26.26
2022-08-09T00:23:55.641Z,26.24
2022-08-09T00:26:17.849Z,26.15
2022-08-09T00:28:52.929Z,26.21
2022-08-09T00:31:56.762Z,26.10
2022-08-09T00:34:11.068Z,26.09
2022-08-09T00:36:37.857Z,26.32
2022-08-09T00:39:06.741Z,26.40
2022-08-09T00:44:11.191Z,26.30
2022-08-09T00:44:31.184Z,26.44
2022-08-09T00:47:05.542Z,26.51
2022-08-09T00:49:36.745Z,26.30
2022-08-09T00:52:05.925Z,26.21
2022-08-09T00:54:35.972Z,25.86
2022-08-09T00:57:10.417Z,25.77
2022-08-09T00:59:41.512Z,25.68
2022-08-09T01:02:20.242Z,25.71
2022-08-09T01:04:52.755Z,25.66
2022-08-09T01:07:37.780Z,25.70
2022-08-09T01:10:39.357Z,25.88
2022-08-09T01:13:31.298Z,25.72
2022-08-09T01:16:21.481Z,25.59
2022-08-09T01:19:02.297Z,25.57
2022-08-09T01:21:54.635Z,25.51
2022-08-09T01:24:58.006Z,25.49
2022-08-09T01:27:29.169Z,25.53
2022-08-09T01:30:00.044Z,25.56
2022-08-09T01:32:39.011Z,25.70
2022-08-09T01:35:28.957Z,25.73
2022-08-09T01:38:10.603Z,25.83
2022-08-09T01:40:52.970Z,25.50
2022-08-09T01:43:50.272Z,25.32
2022-08-09T01:46:31.664Z,25.16
2022-08-09T01:49:10.614Z,25.17
2022-08-09T01:52:07.217Z,25.55
2022-08-09T01:54:39.681Z,25.32
2022-08-09T01:57:14.846Z,25.59
2022-08-09T01:59:51.410Z,25.56
2022-08-09T02:02:29.966Z,25.28
2022-08-09T02:05:04.722Z,25.01
2022-08-09T02:08:41.106Z,25.09
2022-08-09T02:10:31.074Z,25.16
2022-08-09T02:13:01.284Z,25.36
2022-08-09T02:15:48.806Z,25.29
2022-08-09T02:18:23.691Z,25.35
2022-08-09T02:20:56.676Z,25.37
2022-08-09T02:23:42.963Z,24.99
2022-08-09T02:26:24.906Z,24.87
2022-08-09T02:28:57.513Z,24.77
2022-08-09T02:31:31.328Z,25.07
2022-08-09T02:34:11.068Z,24.82
2022-08-09T02:36:48.998Z,24.55
2022-08-09T02:39:34.047Z,24.75
2022-08-09T02:42:18.066Z,24.60
2022-08-09T02:44:52.605Z,24.44
2022-08-09T02:47:22.431Z,24.70
2022-08-09T02:50:04.102Z,24.48
2022-08-09T02:52:55.303Z,24.31
2022-08-09T02:55:24.737Z,24.32
2022-08-09T02:58:32.764Z,24.19
2022-08-09T03:01:04.433Z,24.11
2022-08-09T03:04:05.752Z,24.05
2022-08-09T03:06:22.322Z,24.05
2022-08-09T03:08:51.503Z,23.90
2022-08-09T03:12:04.484Z,23.93
2022-08-09T03:14:10.164Z,24.08
2022-08-09T03:16:41.744Z,24.14
2022-08-09T03:19:14.492Z,24.52
2022-08-09T03:22:03.289Z,24.00
2022-08-09T03:24:42.125Z,24.01
2022-08-09T03:27:10.870Z,24.10
2022-08-09T03:29:57.131Z,24.27
2022-08-09T03:32:31.911Z,23.99
2022-08-09T03:35:00.745Z,23.98
2022-08-09T03:37:55.605Z,23.88
2022-08-09T03:40:18.112Z,23.77
2022-08-09T03:42:46.790Z,23.72
2022-08-09T03:45:15.532Z,23.63
2022-08-09T03:47:46.423Z,23.53
2022-08-09T03:50:18.819Z,23.59
2022-08-09T03:52:56.195Z,23.55
2022-08-09T03:55:24.655Z,23.60
2022-08-09T03:58:03.415Z,23.56
2022-08-09T04:00:42.789Z,23.47
2022-08-09T04:03:11.725Z,23.58
2022-08-09T04:05:45.054Z,23.53
2022-08-09T04:08:11.667Z,23.66
2022-08-09T04:10:38.453Z,23.58
2022-08-09T04:13:11.791Z,23.56
2022-08-09T04:16:18.124Z,23.51
2022-08-09T04:18:26.099Z,23.56
2022-08-09T04:20:55.433Z,23.52
2022-08-09T04:23:25.035Z,23.58
2022-08-09T04:25:53.613Z,23.52
2022-08-09T04:28:33.547Z,23.46
2022-08-09T04:31:08.235Z,23.49
2022-08-09T04:33:52.380Z,23.45
2022-08-09T04:36:27.915Z,23.54
2022-08-09T04:38:56.728Z,23.39
2022-08-09T04:41:33.186Z,23.45
2022-08-09T04:44:07.298Z,23.53
2022-08-09T04:46:59.121Z,23.58
2022-08-09T04:49:47.734Z,23.47
2022-08-09T04:52:18.489Z,23.51
2022-08-09T04:54:51.544Z,23.56
2022-08-09T04:57:21.501Z,23.54
2022-08-09T04:59:52.186Z,23.41
2022-08-09T05:02:18.840Z,23.38
2022-08-09T05:04:47.397Z,23.41
2022-08-09T05:07:19.855Z,23.48
2022-08-09T05:09:50.021Z,23.37
2022-08-09T05:12:16.985Z,23.37
2022-08-09T05:14:43.606Z,23.31
2022-08-09T05:18:36.697Z,23.26
2022-08-09T05:19:58.333Z,23.29
2022-08-09T05:22:33.408Z,23.22
2022-08-09T05:25:15.103Z,23.22
2022-08-09T05:27:46.342Z,23.20
2022-08-09T05:30:15.070Z,23.20
2022-08-09T05:32:45.340Z,23.13
2022-08-09T05:35:17.994Z,23.09
2022-08-09T05:37:47.490Z,23.15
2022-08-09T05:40:15.421Z,23.17
2022-08-09T05:42:43.153Z,23.22
2022-08-09T05:45:14.122Z,23.30
2022-08-09T05:47:51.664Z,23.39
2022-08-09T05:50:29.831Z,23.44
2022-08-09T05:53:02.853Z,23.45
2022-08-09T05:55:31.278Z,23.52
2022-08-09T05:57:58.686Z,23.49
2022-08-09T06:00:26.939Z,23.65
2022-08-09T06:02:59.744Z,23.65
2022-08-09T06:05:31.203Z,23.44
2022-08-09T06:08:19.763Z,23.73
2022-08-09T06:10:53.430Z,23.41
2022-08-09T06:13:20.482Z,23.65
2022-08-09T06:15:52.278Z,23.56
2022-08-09T06:18:25.187Z,23.34
2022-08-09T06:20:59.573Z,23.56
2022-08-09T06:23:57.136Z,23.65
2022-08-09T06:26:21.256Z,23.76
2022-08-09T06:29:00.546Z,23.55
2022-08-09T06:31:39.346Z,23.33
2022-08-09T06:34:09.395Z,23.38
2022-08-09T06:36:36.255Z,23.75
2022-08-09T06:39:09.313Z,23.44
2022-08-09T06:42:07.843Z,23.52
2022-08-09T06:44:27.336Z,23.66
2022-08-09T06:46:55.018Z,23.94
2022-08-09T06:49:28.964Z,23.89
2022-08-09T06:52:01.645Z,24.02
2022-08-09T06:54:28.342Z,23.97
2022-08-09T06:56:55.305Z,24.00
2022-08-09T07:00:57.405Z,24.26
2022-08-09T07:02:09.085Z,24.28
2022-08-09T07:04:36.214Z,24.39
2022-08-09T07:07:04.716Z,24.20
2022-08-09T07:09:55.404Z,24.12
2022-08-09T07:12:18.770Z,24.04
2022-08-09T07:16:35.355Z,24.07
2022-08-09T07:17:56.083Z,24.08
2022-08-09T07:20:28.714Z,24.50
2022-08-09T07:22:55.396Z,24.33
2022-08-09T07:25:25.215Z,24.40
2022-08-09T07:27:53.627Z,24.17
2022-08-09T07:30:25.129Z,23.98
2022-08-09T07:32:52.967Z,23.61
2022-08-09T07:35:21.589Z,24.27
2022-08-09T07:37:49.370Z,24.25
2022-08-09T07:40:20.477Z,24.31
2022-08-09T07:42:56.384Z,24.33
2022-08-09T07:45:39.489Z,24.32
2022-08-09T07:48:25.261Z,24.23
2022-08-09T07:51:09.758Z,24.31
2022-08-09T07:54:05.671Z,24.38
2022-08-09T07:56:33.837Z,24.70
2022-08-09T07:59:00.777Z,24.27
2022-08-09T08:01:33.844Z,24.59
2022-08-09T08:04:02.045Z,24.47
2022-08-09T08:06:31.960Z,24.87
2022-08-09T08:09:05.005Z,24.76
2022-08-09T08:12:24.193Z,24.64
2022-08-09T08:14:23.998Z,24.91
2022-08-09T08:17:01.053Z,24.80
2022-08-09T08:19:34.519Z,24.72
2022-08-09T08:22:01.794Z,24.93
2022-08-09T08:24:35.177Z,25.01
2022-08-09T08:27:17.103Z,24.86
2022-08-09T08:29:49.818Z,25.03
2022-08-09T08:32:24.561Z,25.27
2022-08-09T08:34:59.037Z,25.47
2022-08-09T08:37:40.729Z,25.31
2022-08-09T08:40:09.360Z,25.36
2022-08-09T08:42:37.835Z,25.31
2022-08-09T08:45:11.962Z,25.40
2022-08-09T08:47:42.867Z,25.43
2022-08-09T08:50:17.894Z,25.63
2022-08-09T08:52:59.133Z,25.52
2022-08-09T08:55:27.630Z,25.53
2022-08-09T08:57:56.961Z,25.81
2022-08-09T09:00:30.180Z,25.84
2022-08-09T09:03:12.240Z,26.07
2022-08-09T09:05:59.970Z,26.22
2022-08-09T09:08:40.522Z,26.21
2022-08-09T09:11:17.316Z,26.18
2022-08-09T09:13:56.469Z,26.38
2022-08-09T09:16:30.515Z,26.36
2022-08-09T09:19:29.172Z,26.28
2022-08-09T09:22:11.415Z,26.37
2022-08-09T09:24:49.165Z,26.34
2022-08-09T09:28:05.596Z,26.43
2022-08-09T09:30:26.262Z,26.62
2022-08-09T09:33:15.598Z,26.66
2022-08-09T09:36:01.843Z,26.67
2022-08-09T09:38:44.178Z,26.82
2022-08-09T09:41:12.229Z,26.75
2022-08-09T09:43:41.512Z,26.84
2022-08-09T09:46:42.831Z,26.91
2022-08-09T09:49:14.760Z,26.96
2022-08-09T09:51:41.497Z,27.11
2022-08-09T09:54:21.015Z,27.08
2022-08-09T09:58:01.711Z,27.11
2022-08-09T09:59:36.491Z,27.09
2022-08-09T10:02:03.741Z,27.26
2022-08-09T10:04:31.253Z,27.41
2022-08-09T10:06:58.822Z,27.50
2022-08-09T10:09:48.704Z,27.55
2022-08-09T10:12:28.589Z,27.81
2022-08-09T10:15:17.270Z,27.79
2022-08-09T10:17:55.895Z,27.83
2022-08-09T10:20:35.881Z,27.77
2022-08-09T10:23:21.083Z,27.83
2022-08-09T10:26:08.203Z,27.89
2022-08-09T10:28:39.913Z,27.92
2022-08-09T10:34:10.277Z,28.29
2022-08-09T10:36:50.127Z,28.38
2022-08-09T10:39:19.638Z,28.38
2022-08-09T10:41:47.547Z,28.48
2022-08-09T10:44:18.619Z,28.46
2022-08-09T10:48:19.530Z,28.63
2022-08-09T10:51:05.825Z,28.72
2022-08-09T10:53:54.631Z,28.82
2022-08-09T10:56:23.988Z,28.94
2022-08-09T10:58:54.028Z,28.88
2022-08-09T11:03:18.944Z,28.93
2022-08-09T11:04:31.601Z,29.14
2022-08-09T11:06:59.774Z,29.18
2022-08-09T11:09:41.173Z,29.59
2022-08-09T11:12:29.858Z,29.49
2022-08-09T11:15:23.925Z,29.60
2022-08-09T11:18:02.999Z,29.48
2022-08-09T11:20:43.289Z,29.44
2022-08-09T11:23:11.132Z,29.38
2022-08-09T11:25:46.110Z,29.41
2022-08-09T11:28:38.805Z,29.47
2022-08-09T11:31:49.391Z,29.53
2022-08-09T11:34:51.515Z,29.60
2022-08-09T11:37:27.970Z,29.70
2022-08-09T11:40:09.436Z,29.74
2022-08-09T11:42:38.749Z,29.73
2022-08-09T11:45:06.066Z,29.86
2022-08-09T11:47:46.782Z,30.33
2022-08-09T11:50:55.240Z,30.19
2022-08-09T11:53:21.338Z,30.12
2022-08-09T11:55:53.706Z,30.16
2022-08-09T11:58:32.938Z,30.17
2022-08-09T12:01:15.703Z,30.42
2022-08-09T12:04:01.237Z,30.40
2022-08-09T12:06:32.668Z,30.47
2022-08-09T12:09:05.468Z,30.47
2022-08-09T12:11:44.629Z,30.63
2022-08-09T12:14:36.356Z,30.62
2022-08-09T12:17:23.334Z,30.81
2022-08-09T12:19:59.727Z,31.03
2022-08-09T12:22:29.125Z,30.92
2022-08-09T12:25:16.011Z,31.02
2022-08-09T12:29:09.876Z,31.07
2022-08-09T12:30:36.109Z,31.06
2022-08-09T12:33:05.996Z,31.21
2022-08-09T12:35:40.227Z,31.27
2022-08-09T12:38:37.963Z,31.25
2022-08-09T12:41:07.308Z,31.29
2022-08-09T12:44:06.801Z,31.41
2022-08-09T12:46:23.699Z,31.74
2022-08-09T12:48:52.119Z,31.99
2022-08-09T12:51:52.817Z,31.90
2022-08-09T12:54:08.615Z,31.66
2022-08-09T12:56:51.246Z,31.60
2022-08-09T12:59:22.594Z,31.68
2022-08-09T13:01:58.668Z,31.90
2022-08-09T13:04:36.668Z,31.88
2022-08-09T13:07:16.342Z,31.88
2022-08-09T13:09:56.032Z,31.62
2022-08-09T13:12:30.814Z,31.50
2022-08-09T13:15:09.636Z,31.69
2022-08-09T13:18:03.513Z,32.18
2022-08-09T13:20:37.455Z,32.10
2022-08-09T13:24:42.278Z,32.00
2022-08-09T13:26:04.011Z,32.02
2022-08-09T13:28:35.459Z,32.09
2022-08-09T13:32:12.648Z,32.21
2022-08-09T13:33:58.010Z,32.37
2022-08-09T13:36:42.139Z,32.25
2022-08-09T13:41:19.118Z,32.26
2022-08-09T13:42:12.961Z,32.22
2022-08-09T13:44:45.665Z,32.17
2022-08-09T13:47:33.457Z,32.22
2022-08-09T13:50:31.279Z,32.28
2022-08-09T13:52:58.842Z,32.72
2022-08-09T13:55:29.177Z,32.93
2022-08-09T13:57:59.331Z,33.03
2022-08-09T14:00:28.862Z,32.90
2022-08-09T14:03:04.574Z,32.79
2022-08-09T14:06:00.247Z,32.78
2022-08-09T14:08:32.422Z,32.75
2022-08-09T14:10:59.674Z,32.95
2022-08-09T14:14:25.022Z,32.84
2022-08-09T14:16:18.111Z,32.67
2022-08-09T14:18:50.114Z,33.06
2022-08-09T14:21:20.926Z,33.15
2022-08-09T14:23:56.579Z,33.18
2022-08-09T14:26:31.900Z,33.25
2022-08-09T14:29:25.747Z,33.52
2022-08-09T14:31:56.419Z,33.73
2022-08-09T14:34:27.216Z,33.25
2022-08-09T14:37:06.165Z,33.55
2022-08-09T14:39:45.718Z,33.41
2022-08-09T14:42:31.083Z,33.52
2022-08-09T14:45:00.833Z,33.42
2022-08-09T14:47:44.695Z,33.37
2022-08-09T14:50:16.255Z,33.42
2022-08-09T14:52:43.037Z,33.37
2022-08-09T14:55:10.022Z,33.87
2022-08-09T14:57:43.036Z,33.84
2022-08-09T15:00:11.678Z,33.82
2022-08-09T15:02:38.765Z,33.83
2022-08-09T15:05:07.737Z,33.78
2022-08-09T15:07:36.203Z,33.73
2022-08-09T15:10:10.820Z,33.92
2022-08-09T15:12:40.495Z,33.79
2022-08-09T15:15:12.889Z,33.99
2022-08-09T15:17:42.693Z,34.28
2022-08-09T15:20:15.414Z,34.41
2022-08-09T15:24:03.763Z,34.37
2022-08-09T15:25:52.999Z,34.79
2022-08-09T15:28:26.088Z,34.95
2022-08-09T15:31:01.848Z,34.62
2022-08-09T15:34:32.838Z,35.32
2022-08-09T15:36:16.808Z,35.92
2022-08-09T15:38:43.795Z,35.42
2022-08-09T15:41:10.581Z,34.94
2022-08-09T15:43:48.789Z,35.46
2022-08-09T15:46:28.749Z,35.83
2022-08-09T15:49:22.353Z,35.57
2022-08-09T15:52:03.494Z,35.68
2022-08-09T15:54:46.192Z,35.44
2022-08-09T15:57:34.307Z,35.49
2022-08-09T16:00:11.005Z,35.87
2022-08-09T16:02:42.669Z,36.22
2022-08-09T16:05:16.629Z,36.12
2022-08-09T16:07:45.645Z,35.65
2022-08-09T16:10:38.814Z,35.82
2022-08-09T16:13:01.127Z,35.48
2022-08-09T16:16:11.468Z,35.65
2022-08-09T16:18:14.732Z,36.14
2022-08-09T16:20:41.777Z,36.56
2022-08-09T16:23:11.427Z,36.37
2022-08-09T16:25:41.001Z,35.88
2022-08-09T16:28:12.123Z,35.54
2022-08-09T16:30:44.315Z,35.41
2022-08-09T16:33:15.991Z,35.56
2022-08-09T16:35:55.988Z,35.66
2022-08-09T16:38:26.470Z,35.64
2022-08-09T16:40:53.116Z,35.72
2022-08-09T16:43:20.935Z,36.02
2022-08-09T16:45:48.134Z,36.11
2022-08-09T16:48:39.647Z,36.30
2022-08-09T16:51:14.259Z,36.28
2022-08-09T16:54:08.934Z,36.32
2022-08-09T16:56:31.047Z,36.34
2022-08-09T16:58:58.550Z,36.36
2022-08-09T17:01:25.705Z,36.96
2022-08-09T17:03:52.942Z,37.08
2022-08-09T17:06:31.144Z,37.04
2022-08-09T17:09:10.678Z,37.08
2022-08-09T17:11:44.889Z,37.00
2022-08-09T17:14:27.626Z,37.38
2022-08-09T17:17:02.905Z,36.87
2022-08-09T17:20:04.986Z,36.81
2022-08-09T17:22:23.892Z,36.24
2022-08-09T17:24:55.862Z,35.95
2022-08-09T17:27:31.009Z,36.11
2022-08-09T17:29:57.738Z,36.27
2022-08-09T17:32:34.748Z,36.58
2022-08-09T17:35:11.312Z,37.87
2022-08-09T17:38:12.546Z,37.43
2022-08-09T17:40:26.539Z,36.44
2022-08-09T17:42:59.521Z,36.73
2022-08-09T17:45:37.686Z,36.63
2022-08-09T17:48:16.518Z,36.37
2022-08-09T17:50:55.789Z,36.39
2022-08-09T17:53:23.589Z,36.76
2022-08-09T17:55:55.328Z,36.30
2022-08-09T17:58:27.033Z,35.86
2022-08-09T18:00:58.451Z,35.62
2022-08-09T18:03:26.355Z,35.59
2022-08-09T18:05:57.046Z,35.13
2022-08-09T18:08:27.322Z,35.32
2022-08-09T18:11:01.511Z,35.38
2022-08-09T18:13:38.909Z,35.21
2022-08-09T18:16:30.555Z,35.29
2022-08-09T18:19:03.652Z,35.47
2022-08-09T18:21:41.461Z,35.38
2022-08-09T18:24:14.496Z,35.26
2022-08-09T18:26:45.901Z,35.25
2022-08-09T18:30:40.546Z,35.25
2022-08-09T18:32:02.770Z,35.16
2022-08-09T18:34:31.528Z,35.11
2022-08-09T18:36:58.642Z,34.83
2022-08-09T18:39:31.917Z,34.65
2022-08-09T18:41:59.071Z,34.59
2022-08-09T18:44:26.069Z,34.66
2022-08-09T18:47:04.813Z,34.20
2022-08-09T18:49:43.678Z,34.20
2022-08-09T18:52:18.831Z,34.08
2022-08-09T18:54:53.356Z,33.80
2022-08-09T18:57:22.283Z,33.63
2022-08-09T18:59:57.654Z,33.49
2022-08-09T19:02:30.472Z,33.39
2022-08-09T19:05:04.473Z,33.29
2022-08-09T19:07:59.246Z,33.25
2022-08-09T19:10:29.719Z,33.16
2022-08-09T19:13:20.302Z,33.13
2022-08-09T19:15:52.642Z,33.08
2022-08-09T19:18:33.903Z,32.93
2022-08-09T19:21:09.446Z,32.83
2022-08-09T19:24:32.987Z,32.74
2022-08-09T19:26:31.337Z,32.66
2022-08-09T19:29:01.616Z,32.57
2022-08-09T19:31:30.501Z,32.44
2022-08-09T19:33:58.074Z,32.30
2022-08-09T19:36:30.968Z,32.20
2022-08-09T19:39:03.564Z,32.08
2022-08-09T19:41:33.478Z,32.06
2022-08-09T19:44:03.433Z,32.00
2022-08-09T19:46:35.373Z,31.94
2022-08-09T19:50:05.043Z,31.99
2022-08-09T19:51:55.334Z,31.91
2022-08-09T19:54:29.130Z,31.88
2022-08-09T19:56:57.158Z,31.74
2022-08-09T19:59:58.343Z,31.72
2022-08-09T20:03:23.927Z,31.73
2022-08-09T20:05:01.711Z,31.71
2022-08-09T20:07:33.814Z,31.65
2022-08-09T20:10:22.097Z,31.57
2022-08-09T20:12:49.587Z,31.54
2022-08-09T20:16:38.055Z,31.44
2022-08-09T20:18:08.382Z,31.38
2022-08-09T20:20:37.786Z,31.22
2022-08-09T20:23:04.695Z,31.14
2022-08-09T20:25:38.208Z,31.02
2022-08-09T20:28:34.325Z,30.97
2022-08-09T20:31:11.358Z,30.86
2022-08-09T20:33:44.175Z,30.97
2022-08-09T20:36:12.362Z,30.98
2022-08-09T20:41:34.699Z,30.91
2022-08-09T20:44:03.328Z,30.87
2022-08-09T20:46:42.293Z,30.82
2022-08-09T20:49:11.389Z,30.91
2022-08-09T20:51:41.424Z,30.84
2022-08-09T20:54:12.527Z,30.79
2022-08-09T20:56:39.588Z,30.79
2022-08-09T20:59:07.771Z,30.71
2022-08-09T21:01:49.800Z,30.70
2022-08-09T21:05:55.151Z,30.55
2022-08-09T21:07:13.210Z,30.48
2022-08-09T21:09:56.643Z,30.49
2022-08-09T21:15:14.942Z,30.47
2022-08-09T21:18:21.374Z,30.36
2022-08-09T21:20:30.029Z,30.29
2022-08-09T21:22:58.377Z,30.31
2022-08-09T21:25:56.049Z,30.27
2022-08-09T21:28:34.344Z,30.12
2022-08-09T21:31:17.152Z,30.10
2022-08-09T21:33:46.129Z,30.05
2022-08-09T21:36:18.276Z,29.97
2022-08-09T21:38:51.017Z,29.84
2022-08-09T21:42:00.154Z,29.71
2022-08-09T21:44:11.855Z,29.60
2022-08-09T21:46:42.487Z,29.62
2022-08-09T21:49:09.841Z,29.57
2022-08-09T21:51:43.562Z,29.56
2022-08-09T21:54:10.625Z,29.52
2022-08-09T21:56:44.517Z,29.43
2022-08-09T21:59:23.156Z,29.45
2022-08-09T22:02:00.735Z,29.36
2022-08-09T22:04:55.392Z,29.31
2022-08-09T22:07:35.572Z,29.19
2022-08-09T22:10:05.341Z,29.12
2022-08-09T22:12:32.265Z,29.07
2022-08-09T22:15:00.030Z,29.04
2022-08-09T22:17:28.078Z,28.96
2022-08-09T22:20:00.799Z,28.86
2022-08-09T22:22:30.894Z,28.82
2022-08-09T22:26:08.309Z,28.78
2022-08-09T22:27:47.766Z,28.68
2022-08-09T22:30:15.851Z,28.71
2022-08-09T22:32:53.037Z,28.63
2022-08-09T22:36:02.981Z,28.59
2022-08-09T22:38:06.854Z,28.62
2022-08-09T22:40:34.930Z,28.65
2022-08-09T22:43:15.955Z,28.59
2022-08-09T22:48:16.724Z,28.63
2022-08-09T22:48:34.577Z,28.55
2022-08-09T22:51:02.406Z,28.55
2022-08-09T22:53:58.706Z,28.65
2022-08-09T22:56:31.006Z,28.71
2022-08-09T22:59:00.779Z,28.75
2022-08-09T23:01:32.737Z,28.59
2022-08-09T23:04:03.576Z,28.43
2022-08-09T23:06:52.144Z,28.40
2022-08-09T23:09:19.062Z,28.37
2022-08-09T23:11:48.302Z,28.21
2022-08-09T23:14:17.352Z,28.14
2022-08-09T23:16:44.736Z,28.12
2022-08-09T23:19:11.279Z,27.99
2022-08-09T23:21:38.725Z,27.97
2022-08-09T23:24:07.598Z,28.19
2022-08-09T23:26:38.609Z,28.14
2022-08-09T23:29:07.236Z,28.30
2022-08-09T23:31:34.691Z,28.34
2022-08-09T23:34:02.523Z,28.25
2022-08-09T23:36:29.624Z,28.25
2022-08-09T23:38:56.290Z,27.93
2022-08-09T23:41:27.845Z,27.84
2022-08-09T23:43:56.196Z,27.76
2022-08-09T23:46:22.806Z,27.87
2022-08-09T23:48:49.624Z,27.62
2022-08-09T23:51:16.250Z,27.53
2022-08-09T23:53:43.210Z,27.58
2022-08-09T23:56:09.757Z,27.44
2022-08-09T23:58:36.290Z,27.33
